createdAt,value
2023-05-21T00:01:08.587Z,7.88
2023-05-21T00:03:36.529Z,8.75
2023-05-21T00:06:04.267Z,9.40
2023-05-21T00:08:31.637Z,11.13
2023-05-21T00:10:58.932Z,10.93
2023-05-21T00:13:26.283Z,10.52
2023-05-21T00:15:56.041Z,10.35
2023-05-21T00:18:25.363Z,11.02
2023-05-21T00:20:53.161Z,11.13
2023-05-21T00:23:21.476Z,11.65
2023-05-21T00:25:50.537Z,10.98
2023-05-21T00:28:18.143Z,11.80
2023-05-21T00:30:45.924Z,11.55
2023-05-21T00:33:15.906Z,11.40
2023-05-21T00:35:43.345Z,11.23
2023-05-21T00:38:10.696Z,10.85
2023-05-21T00:40:41.168Z,11.18
2023-05-21T00:43:10.836Z,11.85
2023-05-21T00:45:38.561Z,11.68
2023-05-21T00:48:06.647Z,11.38
2023-05-21T00:50:34.247Z,12.27
2023-05-21T00:53:04.975Z,11.60
2023-05-21T00:55:32.313Z,10.77
2023-05-21T00:57:59.665Z,11.40
2023-05-21T01:00:28.214Z,12.20
2023-05-21T01:02:55.734Z,12.15
2023-05-21T01:05:23.197Z,12.00
2023-05-21T01:07:52.741Z,12.18
2023-05-21T01:10:20.071Z,12.23
2023-05-21T01:12:50.174Z,12.50
2023-05-21T01:15:17.506Z,11.57
2023-05-21T01:17:48.811Z,10.70
2023-05-21T01:20:20.100Z,10.52
2023-05-21T01:22:57.123Z,11.40
2023-05-21T01:25:27.527Z,12.32
2023-05-21T01:27:54.942Z,12.73
2023-05-21T01:30:24.648Z,12.15
2023-05-21T01:33:04.255Z,12.35
2023-05-21T01:35:38.975Z,12.05
2023-05-21T01:38:22.814Z,12.90
2023-05-21T01:41:03.780Z,13.05
2023-05-21T01:43:39.710Z,12.32
2023-05-21T01:46:13.354Z,12.98
2023-05-21T01:48:41.958Z,12.48
2023-05-21T01:51:09.557Z,13.45
2023-05-21T01:53:40.764Z,13.25
2023-05-21T01:56:08.330Z,13.63
2023-05-21T01:58:35.635Z,13.10
2023-05-21T02:01:05.626Z,12.82
2023-05-21T02:03:35.809Z,13.60
2023-05-21T02:06:03.299Z,14.27
2023-05-21T02:08:31.337Z,13.48
2023-05-21T02:10:58.998Z,13.60
2023-05-21T02:13:29.182Z,13.43
2023-05-21T02:15:56.531Z,13.32
2023-05-21T02:18:23.899Z,14.05
2023-05-21T02:20:51.171Z,13.13
2023-05-21T02:23:18.500Z,14.32
2023-05-21T02:25:45.875Z,14.32
2023-05-21T02:28:13.244Z,12.90
2023-05-21T02:30:43.058Z,13.95
2023-05-21T02:33:14.191Z,14.32
2023-05-21T02:35:41.838Z,14.38
2023-05-21T02:38:13.642Z,14.93
2023-05-21T02:40:41.088Z,14.82
2023-05-21T02:43:08.361Z,14.30
2023-05-21T02:45:36.101Z,14.75
2023-05-21T02:48:03.780Z,14.98
2023-05-21T02:50:33.626Z,15.15
2023-05-21T02:53:06.340Z,15.48
2023-05-21T02:55:36.457Z,14.68
2023-05-21T02:58:03.985Z,15.18
2023-05-21T03:00:31.501Z,14.05
2023-05-21T03:02:58.880Z,14.88
2023-05-21T03:05:26.223Z,14.55
2023-05-21T03:07:53.597Z,15.13
2023-05-21T03:10:25.425Z,14.88
2023-05-21T03:12:54.866Z,15.85
2023-05-21T03:15:24.228Z,15.40
2023-05-21T03:17:54.273Z,15.32
2023-05-21T03:20:21.740Z,14.77
2023-05-21T03:22:51.252Z,14.70
2023-05-21T03:25:18.600Z,15.60
2023-05-21T03:27:45.989Z,15.93
2023-05-21T03:30:15.948Z,16.10
2023-05-21T03:32:45.643Z,16.65
2023-05-21T03:35:13.015Z,16.13
2023-05-21T03:37:40.328Z,14.90
2023-05-21T03:40:08.299Z,16.15
2023-05-21T03:42:35.585Z,16.48
2023-05-21T03:45:06.548Z,15.38
2023-05-21T03:47:36.407Z,15.85
2023-05-21T03:50:05.622Z,15.63
2023-05-21T03:52:32.909Z,16.42
2023-05-21T03:55:00.213Z,14.75
2023-05-21T03:57:28.069Z,16.05
2023-05-21T03:59:55.966Z,16.00
2023-05-21T04:02:25.440Z,16.38
2023-05-21T04:04:53.723Z,15.68
2023-05-21T04:07:23.889Z,15.55
2023-05-21T04:09:53.628Z,16.10
2023-05-21T04:12:20.935Z,16.45
2023-05-21T04:14:48.710Z,16.58
2023-05-21T04:17:16.060Z,16.83
2023-05-21T04:19:43.444Z,16.17
2023-05-21T04:22:12.248Z,16.92
2023-05-21T04:24:39.617Z,15.60
2023-05-21T04:27:06.945Z,16.38
2023-05-21T04:29:34.256Z,15.80
2023-05-21T04:32:01.554Z,16.10
2023-05-21T04:34:29.757Z,15.82
2023-05-21T04:36:59.534Z,14.85
2023-05-21T04:39:26.882Z,15.60
2023-05-21T04:41:56.882Z,15.60
2023-05-21T04:44:24.778Z,16.00
2023-05-21T04:46:52.767Z,14.75
2023-05-21T04:49:21.465Z,16.35
2023-05-21T04:51:49.475Z,16.23
2023-05-21T04:54:16.906Z,16.70
2023-05-21T04:56:44.479Z,16.35
2023-05-21T04:59:11.866Z,16.70
2023-05-21T05:01:39.255Z,15.25
2023-05-21T05:04:06.858Z,15.75
2023-05-21T05:06:34.153Z,15.02
2023-05-21T05:09:04.685Z,15.52
2023-05-21T05:11:32.057Z,15.17
2023-05-21T05:13:59.325Z,15.75
2023-05-21T05:16:26.762Z,15.77
2023-05-21T05:18:54.208Z,15.98
2023-05-21T05:21:23.933Z,16.50
2023-05-21T05:23:53.798Z,15.90
2023-05-21T05:26:23.505Z,15.25
2023-05-21T05:28:50.847Z,15.77
2023-05-21T05:31:18.155Z,14.57
2023-05-21T05:33:45.553Z,15.27
2023-05-21T05:36:12.859Z,15.25
2023-05-21T05:38:42.560Z,15.75
2023-05-21T05:41:09.886Z,14.80
2023-05-21T05:43:37.313Z,14.85
2023-05-21T05:46:06.740Z,14.55
2023-05-21T05:48:36.253Z,15.20
2023-05-21T05:51:03.690Z,15.60
2023-05-21T05:53:32.361Z,14.43
2023-05-21T05:56:02.554Z,13.70
2023-05-21T05:58:33.266Z,15.68
2023-05-21T06:01:04.211Z,15.27
2023-05-21T06:03:34.075Z,14.85
2023-05-21T06:06:01.545Z,14.65
2023-05-21T06:08:29.199Z,14.82
2023-05-21T06:10:58.618Z,13.60
2023-05-21T06:13:25.988Z,13.93
2023-05-21T06:15:53.579Z,14.27
2023-05-21T06:18:21.019Z,14.07
2023-05-21T06:20:48.355Z,14.13
2023-05-21T06:23:15.718Z,14.00
2023-05-21T06:25:42.999Z,13.25
2023-05-21T06:28:10.312Z,14.10
2023-05-21T06:30:37.651Z,12.65
2023-05-21T06:33:07.650Z,12.80
2023-05-21T06:35:37.177Z,13.55
2023-05-21T06:38:04.783Z,12.63
2023-05-21T06:40:32.057Z,13.65
2023-05-21T06:42:59.950Z,13.90
2023-05-21T06:45:27.343Z,13.00
2023-05-21T06:47:54.709Z,12.73
2023-05-21T06:50:24.276Z,13.70
2023-05-21T06:52:53.798Z,13.07
2023-05-21T06:55:21.339Z,13.25
2023-05-21T06:57:48.647Z,12.57
2023-05-21T07:00:16.072Z,12.25
2023-05-21T07:02:43.396Z,12.05
2023-05-21T07:05:10.802Z,12.48
2023-05-21T07:07:38.081Z,11.90
2023-05-21T07:10:06.062Z,11.52
2023-05-21T07:12:33.334Z,12.02
2023-05-21T07:15:00.708Z,11.65
2023-05-21T07:17:28.071Z,11.52
2023-05-21T07:19:56.074Z,11.88
2023-05-21T07:22:23.980Z,11.82
2023-05-21T07:24:51.934Z,11.13
2023-05-21T07:29:51.977Z,10.98
2023-05-21T07:32:19.306Z,10.95
2023-05-21T07:34:47.184Z,10.95
2023-05-21T07:37:14.487Z,11.35
2023-05-21T07:39:44.199Z,10.45
2023-05-21T07:42:11.500Z,10.50
2023-05-21T07:44:38.779Z,9.82
2023-05-21T07:47:08.273Z,9.93
2023-05-21T07:49:40.546Z,10.98
2023-05-21T07:52:10.067Z,10.88
2023-05-21T07:54:37.380Z,10.18
2023-05-21T07:57:04.969Z,10.00
2023-05-21T07:59:33.602Z,9.00
2023-05-21T08:02:03.251Z,10.43
2023-05-21T08:04:30.781Z,8.98
2023-05-21T08:06:58.200Z,9.85
2023-05-21T08:09:26.142Z,9.55
2023-05-21T08:11:53.491Z,8.68
2023-05-21T08:14:20.777Z,8.52
2023-05-21T08:16:52.831Z,8.93
2023-05-21T08:19:20.362Z,9.43
2023-05-21T08:21:52.714Z,9.05
2023-05-21T08:24:26.422Z,10.13
2023-05-21T08:26:53.784Z,9.38
2023-05-21T08:29:23.511Z,9.15
2023-05-21T08:31:53.686Z,8.80
2023-05-21T08:34:21.087Z,8.77
2023-05-21T08:36:49.978Z,9.13
2023-05-21T08:39:19.842Z,8.85
2023-05-21T08:41:51.931Z,8.32
2023-05-21T08:44:24.115Z,9.60
2023-05-21T08:46:54.458Z,8.98
2023-05-21T08:49:27.881Z,8.63
2023-05-21T08:51:57.825Z,8.43
2023-05-21T08:54:25.324Z,8.63
2023-05-21T08:56:56.416Z,8.90
2023-05-21T08:59:24.114Z,8.10
2023-05-21T09:01:54.005Z,8.98
2023-05-21T09:04:23.985Z,8.48
2023-05-21T09:06:52.031Z,8.45
2023-05-21T09:09:41.918Z,8.27
2023-05-21T09:12:09.234Z,7.82
2023-05-21T09:14:38.083Z,8.23
2023-05-21T09:17:05.525Z,8.90
2023-05-21T09:19:33.033Z,8.15
2023-05-21T09:22:04.126Z,8.23
2023-05-21T09:24:35.091Z,7.47
2023-05-21T09:27:06.434Z,7.78
2023-05-21T09:29:34.603Z,7.70
2023-05-21T09:32:07.146Z,7.50
2023-05-21T09:34:36.726Z,8.45
2023-05-21T09:37:06.509Z,8.35
2023-05-21T09:39:36.020Z,8.30
2023-05-21T09:42:03.408Z,7.55
2023-05-21T09:44:30.755Z,7.93
2023-05-21T09:46:59.640Z,7.53
2023-05-21T09:49:28.094Z,7.32
2023-05-21T09:51:59.714Z,7.32
2023-05-21T09:54:33.349Z,7.72
2023-05-21T09:57:04.100Z,6.93
2023-05-21T09:59:40.452Z,7.78
2023-05-21T10:02:21.854Z,7.60
2023-05-21T10:04:51.713Z,6.80
2023-05-21T10:07:27.200Z,6.30
2023-05-21T10:09:58.501Z,6.82
2023-05-21T10:15:03.452Z,7.13
2023-05-21T10:17:31.494Z,6.68
2023-05-21T10:20:00.602Z,6.55
2023-05-21T10:22:28.512Z,6.25
2023-05-21T10:24:56.613Z,6.47
2023-05-21T10:27:26.852Z,6.60
2023-05-21T10:29:57.192Z,6.80
2023-05-21T10:32:26.077Z,6.45
2023-05-21T10:34:59.314Z,6.57
2023-05-21T10:37:28.811Z,6.22
2023-05-21T10:39:56.526Z,6.97
2023-05-21T10:42:46.794Z,6.38
2023-05-21T10:45:27.046Z,6.70
2023-05-21T10:48:09.818Z,6.32
2023-05-21T10:50:48.779Z,6.00
2023-05-21T10:53:47.832Z,6.07
2023-05-21T10:56:38.916Z,6.15
2023-05-21T10:59:23.973Z,6.40
2023-05-21T11:01:54.106Z,6.43
2023-05-21T11:04:30.239Z,6.65
2023-05-21T11:06:59.271Z,6.28
2023-05-21T11:09:27.536Z,5.72
2023-05-21T11:12:00.159Z,6.38
2023-05-21T11:14:50.951Z,6.40
2023-05-21T11:17:39.022Z,5.50
2023-05-21T11:20:12.162Z,6.30
2023-05-21T11:22:39.616Z,6.38
2023-05-21T11:25:07.258Z,6.53
2023-05-21T11:27:36.780Z,5.50
2023-05-21T11:30:23.177Z,5.68
2023-05-21T11:33:10.913Z,5.82
2023-05-21T11:35:50.223Z,5.88
2023-05-21T11:38:18.502Z,5.63
2023-05-21T11:40:55.627Z,6.15
2023-05-21T11:43:23.102Z,5.95
2023-05-21T11:45:52.751Z,6.25
2023-05-21T11:48:26.722Z,5.90
2023-05-21T11:50:55.128Z,5.75
2023-05-21T11:53:24.845Z,5.93
2023-05-21T11:55:57.471Z,5.85
2023-05-21T11:58:25.140Z,5.75
2023-05-21T12:00:54.872Z,5.40
2023-05-21T12:03:26.892Z,5.43
2023-05-21T12:05:58.094Z,5.82
2023-05-21T12:08:25.737Z,5.50
2023-05-21T12:10:59.194Z,6.38
2023-05-21T12:13:32.195Z,5.68
2023-05-21T12:15:59.960Z,6.05
2023-05-21T12:18:29.631Z,5.55
2023-05-21T12:20:59.078Z,6.20
2023-05-21T12:23:26.449Z,6.15
2023-05-21T12:25:56.303Z,5.82
2023-05-21T12:28:24.876Z,6.00
2023-05-21T12:30:53.589Z,6.82
2023-05-21T12:33:26.063Z,6.45
2023-05-21T12:35:53.519Z,5.78
2023-05-21T12:38:20.896Z,6.63
2023-05-21T12:40:48.219Z,6.10
2023-05-21T12:43:15.620Z,5.80
2023-05-21T12:45:43.763Z,5.25
2023-05-21T12:48:13.838Z,6.43
2023-05-21T12:50:43.498Z,5.93
2023-05-21T12:53:13.369Z,5.35
2023-05-21T12:55:40.864Z,5.68
2023-05-21T12:58:09.356Z,5.70
2023-05-21T13:00:41.686Z,5.38
2023-05-21T13:03:09.250Z,5.50
2023-05-21T13:05:43.798Z,5.32
2023-05-21T13:08:11.425Z,5.10
2023-05-21T13:10:40.988Z,4.95
2023-05-21T13:13:10.745Z,5.10
2023-05-21T13:15:38.087Z,5.22
2023-05-21T13:18:05.423Z,5.25
2023-05-21T13:20:35.459Z,5.43
2023-05-21T13:23:07.201Z,5.35
2023-05-21T13:25:35.671Z,5.00
2023-05-21T13:28:08.743Z,4.57
2023-05-21T13:30:39.508Z,4.43
2023-05-21T13:33:07.321Z,4.95
2023-05-21T13:35:34.790Z,4.78
2023-05-21T13:38:02.121Z,4.80
2023-05-21T13:40:29.382Z,4.65
2023-05-21T13:42:56.845Z,4.50
2023-05-21T13:45:28.994Z,5.00
2023-05-21T13:47:59.133Z,5.13
2023-05-21T13:50:26.575Z,5.00
2023-05-21T13:52:56.801Z,5.15
2023-05-21T13:55:24.105Z,5.55
2023-05-21T13:57:51.450Z,4.90
2023-05-21T14:00:18.837Z,5.30
2023-05-21T14:02:46.227Z,5.25
2023-05-21T14:05:14.110Z,5.32
2023-05-21T14:07:44.090Z,5.22
2023-05-21T14:10:11.824Z,5.32
2023-05-21T14:12:42.070Z,5.18
2023-05-21T14:15:10.025Z,5.63
2023-05-21T14:17:40.273Z,5.32
2023-05-21T14:20:08.381Z,5.50
2023-05-21T14:22:41.389Z,5.60
2023-05-21T14:25:09.111Z,5.10
2023-05-21T14:27:37.986Z,5.05
2023-05-21T14:30:05.952Z,5.20
2023-05-21T14:32:33.258Z,4.68
2023-05-21T14:35:03.105Z,5.40
2023-05-21T14:37:35.174Z,5.13
2023-05-21T14:40:05.377Z,4.80
2023-05-21T14:42:32.653Z,5.50
2023-05-21T14:45:16.949Z,5.13
2023-05-21T14:47:45.322Z,4.78
2023-05-21T14:50:12.674Z,5.07
2023-05-21T14:52:42.594Z,4.75
2023-05-21T14:55:12.820Z,4.88
2023-05-21T14:57:40.099Z,4.37
2023-05-21T15:00:10.303Z,4.75
2023-05-21T15:02:38.382Z,4.30
2023-05-21T15:05:06.343Z,4.90
2023-05-21T15:07:33.625Z,5.20
2023-05-21T15:10:00.904Z,4.90
2023-05-21T15:12:28.423Z,5.15
2023-05-21T15:14:55.792Z,5.13
2023-05-21T15:17:23.142Z,5.15
2023-05-21T15:19:50.471Z,5.40
2023-05-21T15:22:17.786Z,5.03
2023-05-21T15:24:45.092Z,4.97
2023-05-21T15:27:14.904Z,5.40
2023-05-21T15:29:42.280Z,5.10
2023-05-21T15:32:09.579Z,5.47
2023-05-21T15:34:39.394Z,5.45
2023-05-21T15:37:09.190Z,5.13
2023-05-21T15:39:36.427Z,5.25
2023-05-21T15:42:03.812Z,5.18
2023-05-21T15:44:33.361Z,5.57
2023-05-21T15:47:00.860Z,5.25
2023-05-21T15:49:32.965Z,6.03
2023-05-21T15:52:03.142Z,5.95
2023-05-21T15:54:33.547Z,5.75
2023-05-21T15:57:00.883Z,5.30
2023-05-21T15:59:28.256Z,5.10
2023-05-21T16:01:56.345Z,5.22
2023-05-21T16:04:25.803Z,6.18
2023-05-21T16:06:53.148Z,5.90
2023-05-21T16:09:20.455Z,5.50
2023-05-21T16:11:50.182Z,5.10
2023-05-21T16:14:19.594Z,5.80
2023-05-21T16:16:49.188Z,5.07
2023-05-21T16:19:21.366Z,5.05
2023-05-21T16:21:48.756Z,6.05
2023-05-21T16:24:16.206Z,5.65
2023-05-21T16:26:44.278Z,6.22
2023-05-21T16:29:13.976Z,5.72
2023-05-21T16:31:41.354Z,5.70
2023-05-21T16:34:10.832Z,5.38
2023-05-21T16:36:38.401Z,5.80
2023-05-21T16:39:05.734Z,5.43
2023-05-21T16:41:33.984Z,5.40
2023-05-21T16:44:01.272Z,6.18
2023-05-21T16:46:31.227Z,5.65
2023-05-21T16:49:01.362Z,5.95
2023-05-21T16:51:28.654Z,5.57
2023-05-21T16:54:00.711Z,5.40
2023-05-21T16:56:28.059Z,5.55
2023-05-21T16:58:55.415Z,5.80
2023-05-21T17:01:23.039Z,5.85
2023-05-21T17:03:50.551Z,5.65
2023-05-21T17:06:17.990Z,5.45
2023-05-21T17:08:45.491Z,5.93
2023-05-21T17:11:15.977Z,5.68
2023-05-21T17:13:48.989Z,5.63
2023-05-21T17:16:18.516Z,5.45
2023-05-21T17:18:45.906Z,5.50
2023-05-21T17:21:13.684Z,5.53
2023-05-21T17:23:42.848Z,5.38
2023-05-21T17:26:13.336Z,5.07
2023-05-21T17:28:40.630Z,5.50
2023-05-21T17:31:10.303Z,5.43
2023-05-21T17:33:37.901Z,5.25
2023-05-21T17:36:05.400Z,5.68
2023-05-21T17:38:32.703Z,4.88
2023-05-21T17:41:02.783Z,5.80
2023-05-21T17:43:31.924Z,5.50
2023-05-21T17:45:59.515Z,5.43
2023-05-21T17:48:26.772Z,5.72
2023-05-21T17:50:54.376Z,5.70
2023-05-21T17:53:22.770Z,5.78
2023-05-21T17:55:50.226Z,5.63
2023-05-21T17:58:19.706Z,5.60
2023-05-21T18:00:49.389Z,5.38
2023-05-21T18:03:16.736Z,5.28
2023-05-21T18:05:44.068Z,6.22
2023-05-21T18:08:11.577Z,5.60
2023-05-21T18:10:41.013Z,5.60
2023-05-21T18:13:08.309Z,5.47
2023-05-21T18:15:36.000Z,5.32
2023-05-21T18:18:03.896Z,5.43
2023-05-21T18:20:35.904Z,4.65
2023-05-21T18:23:05.878Z,5.43
2023-05-21T18:25:33.173Z,5.07
2023-05-21T18:28:02.851Z,5.70
2023-05-21T18:30:30.125Z,5.80
2023-05-21T18:32:57.415Z,5.20
2023-05-21T18:35:24.819Z,5.20
2023-05-21T18:37:52.109Z,5.40
2023-05-21T18:40:22.963Z,5.43
2023-05-21T18:42:50.385Z,5.00
2023-05-21T18:45:22.180Z,5.53
2023-05-21T18:47:49.482Z,5.63
2023-05-21T18:50:19.059Z,5.57
2023-05-21T18:52:53.387Z,5.75
2023-05-21T18:55:23.423Z,5.32
2023-05-21T18:57:53.035Z,5.68
2023-05-21T19:00:22.936Z,5.40
2023-05-21T19:02:50.287Z,5.70
2023-05-21T19:05:17.752Z,5.40
2023-05-21T19:07:45.092Z,5.35
2023-05-21T19:10:12.713Z,5.38
2023-05-21T19:12:41.884Z,5.55
2023-05-21T19:15:10.028Z,6.40
2023-05-21T19:17:39.129Z,6.78
2023-05-21T19:20:10.684Z,5.43
2023-05-21T19:22:38.033Z,5.00
2023-05-21T19:25:08.176Z,5.50
2023-05-21T19:27:35.477Z,6.03
2023-05-21T19:30:02.818Z,5.85
2023-05-21T19:32:30.928Z,5.60
2023-05-21T19:35:00.722Z,5.10
2023-05-21T19:37:28.114Z,5.60
2023-05-21T19:39:58.410Z,5.40
2023-05-21T19:42:25.841Z,5.45
2023-05-21T19:44:53.109Z,5.55
2023-05-21T19:47:20.511Z,6.18
2023-05-21T19:49:52.412Z,5.55
2023-05-21T19:52:24.572Z,6.13
2023-05-21T19:54:54.383Z,5.95
2023-05-21T19:57:21.670Z,6.03
2023-05-21T19:59:48.994Z,6.13
2023-05-21T20:02:17.118Z,5.47
2023-05-21T20:04:44.410Z,5.70
2023-05-21T20:07:14.196Z,6.00
2023-05-21T20:09:41.770Z,5.70
2023-05-21T20:12:09.482Z,5.63
2023-05-21T20:14:39.297Z,5.93
2023-05-21T20:17:07.203Z,5.40
2023-05-21T20:19:35.839Z,5.88
2023-05-21T20:22:05.951Z,5.20
2023-05-21T20:24:35.865Z,5.65
2023-05-21T20:27:05.553Z,5.43
2023-05-21T20:29:32.999Z,6.05
2023-05-21T20:32:02.785Z,5.15
2023-05-21T20:34:30.166Z,5.82
2023-05-21T20:36:58.305Z,5.65
2023-05-21T20:39:29.588Z,6.15
2023-05-21T20:44:27.468Z,5.50
2023-05-21T20:46:57.183Z,5.80
2023-05-21T20:49:25.048Z,6.50
2023-05-21T20:51:56.954Z,5.70
2023-05-21T20:54:27.019Z,6.10
2023-05-21T20:56:58.978Z,6.13
2023-05-21T20:59:27.387Z,5.68
2023-05-21T21:01:57.286Z,5.75
2023-05-21T21:04:26.903Z,5.82
2023-05-21T21:06:55.309Z,5.93
2023-05-21T21:09:30.074Z,5.80
2023-05-21T21:11:57.463Z,5.72
2023-05-21T21:14:24.832Z,5.60
2023-05-21T21:16:52.106Z,6.25
2023-05-21T21:19:19.567Z,6.85
2023-05-21T21:21:47.798Z,5.97
2023-05-21T21:24:15.089Z,6.22
2023-05-21T21:26:42.377Z,6.30
2023-05-21T21:29:09.645Z,5.82
2023-05-21T21:31:36.995Z,6.07
2023-05-21T21:34:04.330Z,6.25
2023-05-21T21:36:31.741Z,7.18
2023-05-21T21:39:02.593Z,7.25
2023-05-21T21:41:30.020Z,6.28
2023-05-21T21:44:01.749Z,6.40
2023-05-21T21:46:31.438Z,7.60
2023-05-21T21:48:58.768Z,8.73
2023-05-21T21:51:28.559Z,7.20
2023-05-21T21:54:00.212Z,7.18
2023-05-21T21:56:27.466Z,6.40
2023-05-21T21:58:57.310Z,6.43
2023-05-21T22:01:24.912Z,6.40
2023-05-21T22:03:54.443Z,5.90
2023-05-21T22:06:21.900Z,6.43
2023-05-21T22:08:51.461Z,6.07
2023-05-21T22:11:18.831Z,6.28
2023-05-21T22:13:46.153Z,6.65
2023-05-21T22:16:15.637Z,6.18
2023-05-21T22:18:46.158Z,6.20
2023-05-21T22:21:14.489Z,6.03
2023-05-21T22:23:41.923Z,6.35
2023-05-21T22:26:09.841Z,6.32
2023-05-21T22:28:39.630Z,7.07
2023-05-21T22:31:10.649Z,6.90
2023-05-21T22:33:40.480Z,9.40
2023-05-21T22:36:11.089Z,6.80
2023-05-21T22:38:38.423Z,7.07
2023-05-21T22:41:05.894Z,7.28
2023-05-21T22:43:34.678Z,7.00
2023-05-21T22:46:02.089Z,7.03
2023-05-21T22:48:31.736Z,7.25
2023-05-21T22:51:01.816Z,7.40
2023-05-21T22:53:29.300Z,6.93
2023-05-21T22:55:56.586Z,7.45
2023-05-21T22:58:23.884Z,6.82
2023-05-21T23:00:51.222Z,7.45
2023-05-21T23:03:18.512Z,8.20
2023-05-21T23:05:46.162Z,7.95
2023-05-21T23:08:13.864Z,7.57
2023-05-21T23:10:45.504Z,7.32
2023-05-21T23:13:15.009Z,9.43
2023-05-21T23:15:48.433Z,7.03
2023-05-21T23:18:16.598Z,7.50
2023-05-21T23:20:46.363Z,7.40
2023-05-21T23:23:13.651Z,7.93
2023-05-21T23:25:40.976Z,7.68
2023-05-21T23:28:08.423Z,7.47
2023-05-21T23:30:38.346Z,7.38
2023-05-21T23:33:05.844Z,7.40
2023-05-21T23:35:35.776Z,7.30
2023-05-21T23:38:03.631Z,7.85
2023-05-21T23:40:33.103Z,6.95
2023-05-21T23:43:00.570Z,7.40
2023-05-21T23:45:27.889Z,7.13
2023-05-21T23:47:57.596Z,7.50
2023-05-21T23:50:25.127Z,7.30
2023-05-21T23:52:52.431Z,6.80
2023-05-21T23:55:21.989Z,6.97
2023-05-21T23:57:49.375Z,7.60
